Terminal Aerodrome Forecast
Issued by NWS Wichita, KS

Home | Current Version | Previous Version | Text Only | Print | Product List | Glossary On
Versions: 1 2 3 4 5 6 7 8 9 10 11 12 13 14 15 16
000
FTUS43 KICT 250921 AAA
TAFICT
TAF AMD
KICT 250921Z 2509/2606 32017G24KT P6SM SCT100
     FM251500 33028G38KT P6SM SCT035 SCT250
     FM252300 32014KT P6SM SCT100 SCT200
     FM260300 34008KT P6SM SCT250=

USA.gov is the U.S. government's official web portal to all federal, state and local government web resources and services.